sensor_id;sensor_type;location;lat;lon;timestamp;pressure;altitude;pressure_sealevel;temperature;humidity
44103;BME280;29769;42.178;24.742;2023-07-31T00:02:27;98971.66;;;23.56;61.92
44103;BME280;29769;42.178;24.742;2023-07-31T00:05:12;98988.28;;;23.61;62.37
44103;BME280;29769;42.178;24.742;2023-07-31T00:07:57;98984.94;;;23.58;62.56
44103;BME280;29769;42.178;24.742;2023-07-31T00:10:41;98974.84;;;23.50;63.15
44103;BME280;29769;42.178;24.742;2023-07-31T00:13:26;98981.91;;;23.51;63.36
44103;BME280;29769;42.178;24.742;2023-07-31T00:16:11;98990.69;;;23.53;63.66
44103;BME280;29769;42.178;24.742;2023-07-31T00:18:56;98991.44;;;23.55;63.61
44103;BME280;29769;42.178;24.742;2023-07-31T00:21:41;98991.44;;;23.55;63.71
44103;BME280;29769;42.178;24.742;2023-07-31T00:24:26;99000.09;;;23.47;64.24
44103;BME280;29769;42.178;24.742;2023-07-31T00:27:11;99013.75;;;23.44;64.47
44103;BME280;29769;42.178;24.742;2023-07-31T00:29:56;99012.13;;;23.42;64.26
44103;BME280;29769;42.178;24.742;2023-07-31T00:32:41;98990.63;;;23.31;64.48
44103;BME280;29769;42.178;24.742;2023-07-31T00:35:26;98991.28;;;23.34;64.42
44103;BME280;29769;42.178;24.742;2023-07-31T00:38:11;99003.22;;;23.41;64.47
44103;BME280;29769;42.178;24.742;2023-07-31T00:40:56;98985.75;;;23.36;64.45
44103;BME280;29769;42.178;24.742;2023-07-31T00:43:41;98995.91;;;23.43;64.61
44103;BME280;29769;42.178;24.742;2023-07-31T00:46:26;98996.66;;;23.45;64.64
44103;BME280;29769;42.178;24.742;2023-07-31T00:49:11;98996.78;;;23.44;64.80
44103;BME280;29769;42.178;24.742;2023-07-31T00:51:56;98997.63;;;23.44;64.93
44103;BME280;29769;42.178;24.742;2023-07-31T00:54:43;98988.94;;;23.41;64.76
44103;BME280;29769;42.178;24.742;2023-07-31T00:57:28;99005.22;;;23.51;64.73
44103;BME280;29769;42.178;24.742;2023-07-31T01:00:15;98997.56;;;23.57;64.46
44103;BME280;29769;42.178;24.742;2023-07-31T01:03:01;99000.69;;;23.62;64.04
44103;BME280;29769;42.178;24.742;2023-07-31T01:09:03;99015.47;;;23.68;64.02
44103;BME280;29769;42.178;24.742;2023-07-31T01:11:57;99017.66;;;23.63;64.36
44103;BME280;29769;42.178;24.742;2023-07-31T01:15:01;98999.97;;;23.60;63.80
44103;BME280;29769;42.178;24.742;2023-07-31T01:17:46;99012.94;;;23.66;63.92
44103;BME280;29769;42.178;24.742;2023-07-31T01:20:31;99016.69;;;23.64;64.50
44103;BME280;29769;42.178;24.742;2023-07-31T01:26:21;98994.09;;;23.44;64.65
44103;BME280;29769;42.178;24.742;2023-07-31T01:29:11;99024.25;;;23.59;64.76
44103;BME280;29769;42.178;24.742;2023-07-31T01:32:02;99027.66;;;23.49;65.28
44103;BME280;29769;42.178;24.742;2023-07-31T01:34:48;99021.91;;;23.43;65.52
44103;BME280;29769;42.178;24.742;2023-07-31T01:37:34;99028.22;;;23.31;67.05
44103;BME280;29769;42.178;24.742;2023-07-31T01:40:20;99028.31;;;23.07;68.53
44103;BME280;29769;42.178;24.742;2023-07-31T01:45:49;99027.34;;;22.60;71.58
44103;BME280;29769;42.178;24.742;2023-07-31T01:48:35;99024.09;;;22.44;73.59
44103;BME280;29769;42.178;24.742;2023-07-31T01:51:21;99026.81;;;22.32;75.28
44103;BME280;29769;42.178;24.742;2023-07-31T01:54:06;99016.06;;;22.21;77.19
44103;BME280;29769;42.178;24.742;2023-07-31T01:56:51;99019.19;;;22.14;78.87
44103;BME280;29769;42.178;24.742;2023-07-31T01:59:35;99006.88;;;22.12;79.69
44103;BME280;29769;42.178;24.742;2023-07-31T02:02:20;99006.22;;;22.08;81.21
44103;BME280;29769;42.178;24.742;2023-07-31T02:05:06;99004.63;;;22.06;82.39
44103;BME280;29769;42.178;24.742;2023-07-31T02:07:50;99004.75;;;22.04;82.84
44103;BME280;29769;42.178;24.742;2023-07-31T02:10:35;99023.81;;;22.00;85.03
44103;BME280;29769;42.178;24.742;2023-07-31T02:13:20;99029.94;;;21.89;84.84
44103;BME280;29769;42.178;24.742;2023-07-31T02:16:05;99023.28;;;21.95;84.08
44103;BME280;29769;42.178;24.742;2023-07-31T02:18:50;99015.91;;;21.98;82.79
44103;BME280;29769;42.178;24.742;2023-07-31T02:21:34;99015.44;;;22.04;81.54
44103;BME280;29769;42.178;24.742;2023-07-31T02:24:19;99004.53;;;22.07;79.84
44103;BME280;29769;42.178;24.742;2023-07-31T02:27:05;99012.53;;;22.20;79.65
44103;BME280;29769;42.178;24.742;2023-07-31T02:29:50;99014.34;;;22.20;80.53
44103;BME280;29769;42.178;24.742;2023-07-31T02:32:35;99000.72;;;22.23;81.83
44103;BME280;29769;42.178;24.742;2023-07-31T02:35:19;99001.22;;;22.28;83.06
44103;BME280;29769;42.178;24.742;2023-07-31T02:38:04;98996.84;;;22.27;84.04
44103;BME280;29769;42.178;24.742;2023-07-31T02:40:49;99003.47;;;22.34;85.70
44103;BME280;29769;42.178;24.742;2023-07-31T02:43:35;99001.94;;;22.42;90.03
44103;BME280;29769;42.178;24.742;2023-07-31T02:46:20;99001.59;;;22.47;100.00
44103;BME280;29769;42.178;24.742;2023-07-31T02:49:06;98979.38;;;22.45;100.00
44103;BME280;29769;42.178;24.742;2023-07-31T02:51:51;98988.44;;;22.55;100.00
44103;BME280;29769;42.178;24.742;2023-07-31T02:54:36;98993.56;;;22.58;100.00
44103;BME280;29769;42.178;24.742;2023-07-31T02:57:21;98995.09;;;22.62;100.00
44103;BME280;29769;42.178;24.742;2023-07-31T03:00:06;98985.09;;;22.64;100.00
44103;BME280;29769;42.178;24.742;2023-07-31T03:02:51;98990.19;;;22.67;100.00
44103;BME280;29769;42.178;24.742;2023-07-31T03:05:36;98986.69;;;22.67;100.00
44103;BME280;29769;42.178;24.742;2023-07-31T03:08:22;98992.69;;;22.70;100.00
44103;BME280;29769;42.178;24.742;2023-07-31T03:11:08;98984.34;;;22.62;100.00
44103;BME280;29769;42.178;24.742;2023-07-31T03:13:53;98984.22;;;22.40;100.00
44103;BME280;29769;42.178;24.742;2023-07-31T03:16:38;98979.44;;;22.08;100.00
44103;BME280;29769;42.178;24.742;2023-07-31T03:19:23;98986.66;;;21.83;100.00
44103;BME280;29769;42.178;24.742;2023-07-31T03:22:08;98974.34;;;21.44;100.00
44103;BME280;29769;42.178;24.742;2023-07-31T03:24:52;98976.16;;;21.18;100.00
44103;BME280;29769;42.178;24.742;2023-07-31T03:27:37;99004.13;;;21.00;100.00
44103;BME280;29769;42.178;24.742;2023-07-31T03:30:22;98982.06;;;20.71;100.00
44103;BME280;29769;42.178;24.742;2023-07-31T03:33:07;99007.16;;;20.68;100.00
44103;BME280;29769;42.178;24.742;2023-07-31T03:35:52;99023.19;;;20.68;100.00
44103;BME280;29769;42.178;24.742;2023-07-31T03:38:37;99024.28;;;20.66;100.00
44103;BME280;29769;42.178;24.742;2023-07-31T03:41:22;99022.56;;;20.65;100.00
44103;BME280;29769;42.178;24.742;2023-07-31T03:44:06;99033.25;;;20.65;100.00
44103;BME280;29769;42.178;24.742;2023-07-31T03:46:51;99029.94;;;20.61;100.00
44103;BME280;29769;42.178;24.742;2023-07-31T03:49:37;99025.75;;;20.57;100.00
44103;BME280;29769;42.178;24.742;2023-07-31T03:52:22;99047.25;;;20.68;100.00
44103;BME280;29769;42.178;24.742;2023-07-31T03:55:08;99050.38;;;20.75;100.00
44103;BME280;29769;42.178;24.742;2023-07-31T03:57:53;99053.31;;;20.84;100.00
44103;BME280;29769;42.178;24.742;2023-07-31T04:00:39;99046.34;;;20.82;100.00
44103;BME280;29769;42.178;24.742;2023-07-31T04:03:24;99046.13;;;20.85;100.00
44103;BME280;29769;42.178;24.742;2023-07-31T04:06:09;99058.22;;;20.91;100.00
44103;BME280;29769;42.178;24.742;2023-07-31T04:08:55;99057.38;;;20.90;100.00
44103;BME280;29769;42.178;24.742;2023-07-31T04:11:40;99059.19;;;20.90;100.00
44103;BME280;29769;42.178;24.742;2023-07-31T04:14:24;99070.63;;;20.92;100.00
44103;BME280;29769;42.178;24.742;2023-07-31T04:17:09;99064.66;;;20.88;100.00
44103;BME280;29769;42.178;24.742;2023-07-31T04:19:54;99070.72;;;20.90;100.00
44103;BME280;29769;42.178;24.742;2023-07-31T04:22:39;99076.63;;;20.95;100.00
44103;BME280;29769;42.178;24.742;2023-07-31T04:25:24;99067.31;;;20.88;100.00
44103;BME280;29769;42.178;24.742;2023-07-31T04:28:09;99069.22;;;20.86;100.00
44103;BME280;29769;42.178;24.742;2023-07-31T04:30:53;99076.75;;;20.94;100.00
44103;BME280;29769;42.178;24.742;2023-07-31T04:33:38;99081.88;;;20.97;100.00
44103;BME280;29769;42.178;24.742;2023-07-31T04:36:23;99072.22;;;20.94;100.00
44103;BME280;29769;42.178;24.742;2023-07-31T04:39:08;99092.06;;;21.04;100.00
44103;BME280;29769;42.178;24.742;2023-07-31T04:41:52;99083.84;;;21.07;100.00
44103;BME280;29769;42.178;24.742;2023-07-31T04:44:37;99089.94;;;21.09;100.00
44103;BME280;29769;42.178;24.742;2023-07-31T04:47:22;99085.16;;;21.14;100.00
44103;BME280;29769;42.178;24.742;2023-07-31T04:50:07;99085.81;;;21.30;100.00
44103;BME280;29769;42.178;24.742;2023-07-31T04:52:52;99078.47;;;21.34;100.00
44103;BME280;29769;42.178;24.742;2023-07-31T04:55:37;99077.50;;;21.48;100.00
44103;BME280;29769;42.178;24.742;2023-07-31T04:58:21;99077.81;;;21.56;100.00
44103;BME280;29769;42.178;24.742;2023-07-31T05:01:06;99079.63;;;21.68;100.00
44103;BME280;29769;42.178;24.742;2023-07-31T05:03:51;99077.50;;;21.73;100.00
44103;BME280;29769;42.178;24.742;2023-07-31T05:06:35;99080.59;;;21.80;100.00
44103;BME280;29769;42.178;24.742;2023-07-31T05:09:20;99081.00;;;21.86;100.00
44103;BME280;29769;42.178;24.742;2023-07-31T05:12:05;99082.63;;;21.89;100.00
44103;BME280;29769;42.178;24.742;2023-07-31T05:14:50;99084.88;;;21.95;100.00
44103;BME280;29769;42.178;24.742;2023-07-31T05:17:35;99081.34;;;21.94;100.00
44103;BME280;29769;42.178;24.742;2023-07-31T05:20:21;99076.97;;;21.93;100.00
44103;BME280;29769;42.178;24.742;2023-07-31T05:23:06;99091.41;;;22.03;100.00
44103;BME280;29769;42.178;24.742;2023-07-31T05:25:51;99090.00;;;22.10;100.00
44103;BME280;29769;42.178;24.742;2023-07-31T05:28:37;99091.63;;;22.00;100.00
44103;BME280;29769;42.178;24.742;2023-07-31T05:31:22;99087.22;;;21.99;100.00
44103;BME280;29769;42.178;24.742;2023-07-31T05:34:08;99098.16;;;22.09;100.00
44103;BME280;29769;42.178;24.742;2023-07-31T05:36:53;99088.81;;;22.14;100.00
44103;BME280;29769;42.178;24.742;2023-07-31T05:39:38;99098.44;;;22.30;100.00
44103;BME280;29769;42.178;24.742;2023-07-31T05:42:23;99087.41;;;22.34;100.00
44103;BME280;29769;42.178;24.742;2023-07-31T05:45:08;99096.00;;;22.50;100.00
44103;BME280;29769;42.178;24.742;2023-07-31T05:47:53;99097.69;;;22.64;100.00
44103;BME280;29769;42.178;24.742;2023-07-31T05:50:37;99103.31;;;22.85;100.00
44103;BME280;29769;42.178;24.742;2023-07-31T05:53:24;99107.06;;;23.06;100.00
44103;BME280;29769;42.178;24.742;2023-07-31T05:56:09;99069.00;;;23.01;100.00
44103;BME280;29769;42.178;24.742;2023-07-31T05:58:54;99107.91;;;23.41;100.00
44103;BME280;29769;42.178;24.742;2023-07-31T06:01:39;99098.31;;;23.50;100.00
44103;BME280;29769;42.178;24.742;2023-07-31T06:04:24;99100.53;;;23.67;100.00
44103;BME280;29769;42.178;24.742;2023-07-31T06:07:10;99092.84;;;23.63;100.00
44103;BME280;29769;42.178;24.742;2023-07-31T06:09:55;99101.06;;;23.83;100.00
44103;BME280;29769;42.178;24.742;2023-07-31T06:12:42;99100.94;;;23.96;100.00
44103;BME280;29769;42.178;24.742;2023-07-31T06:15:27;99087.41;;;23.98;100.00
44103;BME280;29769;42.178;24.742;2023-07-31T06:18:12;99086.78;;;24.27;100.00
44103;BME280;29769;42.178;24.742;2023-07-31T06:20:57;99087.28;;;24.32;100.00
44103;BME280;29769;42.178;24.742;2023-07-31T06:23:42;99091.41;;;24.48;100.00
44103;BME280;29769;42.178;24.742;2023-07-31T06:26:27;99091.25;;;24.49;100.00
44103;BME280;29769;42.178;24.742;2023-07-31T06:29:12;99102.06;;;24.92;100.00
44103;BME280;29769;42.178;24.742;2023-07-31T06:31:57;99079.75;;;24.69;100.00
44103;BME280;29769;42.178;24.742;2023-07-31T06:34:42;99096.81;;;24.91;100.00
44103;BME280;29769;42.178;24.742;2023-07-31T06:37:27;99094.13;;;24.91;100.00
44103;BME280;29769;42.178;24.742;2023-07-31T06:40:12;99091.19;;;24.94;100.00
44103;BME280;29769;42.178;24.742;2023-07-31T06:42:57;99103.41;;;25.18;100.00
44103;BME280;29769;42.178;24.742;2023-07-31T06:45:42;99091.28;;;25.24;100.00
44103;BME280;29769;42.178;24.742;2023-07-31T06:48:27;99094.50;;;25.18;100.00
44103;BME280;29769;42.178;24.742;2023-07-31T06:51:12;99083.09;;;25.26;100.00
44103;BME280;29769;42.178;24.742;2023-07-31T06:53:57;99096.34;;;25.38;100.00
44103;BME280;29769;42.178;24.742;2023-07-31T06:56:42;99091.63;;;25.51;100.00
44103;BME280;29769;42.178;24.742;2023-07-31T06:59:26;99090.00;;;25.60;100.00
44103;BME280;29769;42.178;24.742;2023-07-31T07:02:12;99092.94;;;25.78;100.00
44103;BME280;29769;42.178;24.742;2023-07-31T07:04:56;99076.16;;;25.95;100.00
44103;BME280;29769;42.178;24.742;2023-07-31T07:07:41;99077.50;;;26.10;100.00
44103;BME280;29769;42.178;24.742;2023-07-31T07:10:27;99078.00;;;26.25;100.00
44103;BME280;29769;42.178;24.742;2023-07-31T07:13:12;99090.97;;;26.40;100.00
44103;BME280;29769;42.178;24.742;2023-07-31T07:15:57;99080.38;;;26.68;100.00
44103;BME280;29769;42.178;24.742;2023-07-31T07:18:42;99063.50;;;26.75;100.00
44103;BME280;29769;42.178;24.742;2023-07-31T07:21:27;99087.38;;;26.80;100.00
44103;BME280;29769;42.178;24.742;2023-07-31T07:24:12;99074.53;;;26.63;100.00
44103;BME280;29769;42.178;24.742;2023-07-31T07:26:57;99088.78;;;26.74;100.00
44103;BME280;29769;42.178;24.742;2023-07-31T07:29:42;99095.78;;;27.34;100.00
44103;BME280;29769;42.178;24.742;2023-07-31T07:32:27;99082.38;;;27.71;100.00
44103;BME280;29769;42.178;24.742;2023-07-31T07:35:12;99076.72;;;27.46;100.00
44103;BME280;29769;42.178;24.742;2023-07-31T07:37:56;99068.16;;;27.69;100.00
44103;BME280;29769;42.178;24.742;2023-07-31T07:40:41;99086.19;;;28.52;100.00
44103;BME280;29769;42.178;24.742;2023-07-31T07:43:26;99077.69;;;28.47;100.00
44103;BME280;29769;42.178;24.742;2023-07-31T07:46:11;99078.31;;;28.59;100.00
44103;BME280;29769;42.178;24.742;2023-07-31T07:48:56;99075.38;;;28.80;100.00
44103;BME280;29769;42.178;24.742;2023-07-31T07:51:41;99080.88;;;29.05;100.00
44103;BME280;29769;42.178;24.742;2023-07-31T07:54:26;99072.03;;;29.03;100.00
44103;BME280;29769;42.178;24.742;2023-07-31T07:57:11;99073.91;;;29.38;100.00
44103;BME280;29769;42.178;24.742;2023-07-31T07:59:55;99078.22;;;29.92;100.00
44103;BME280;29769;42.178;24.742;2023-07-31T08:02:40;99068.13;;;30.11;91.68
44103;BME280;29769;42.178;24.742;2023-07-31T08:05:25;99082.78;;;29.92;90.66
44103;BME280;29769;42.178;24.742;2023-07-31T08:08:15;99063.44;;;30.21;87.60
44103;BME280;29769;42.178;24.742;2023-07-31T08:11:01;99066.66;;;30.24;85.93
44103;BME280;29769;42.178;24.742;2023-07-31T08:13:46;99074.91;;;30.48;86.11
44103;BME280;29769;42.178;24.742;2023-07-31T08:16:31;99062.13;;;29.99;86.39
44103;BME280;29769;42.178;24.742;2023-07-31T08:19:16;99063.50;;;30.87;81.93
44103;BME280;29769;42.178;24.742;2023-07-31T08:22:01;99058.44;;;31.41;78.02
44103;BME280;29769;42.178;24.742;2023-07-31T08:24:46;99059.13;;;31.67;75.19
44103;BME280;29769;42.178;24.742;2023-07-31T08:27:31;99059.31;;;31.65;69.43
44103;BME280;29769;42.178;24.742;2023-07-31T08:30:15;99054.16;;;31.87;63.31
44103;BME280;29769;42.178;24.742;2023-07-31T08:33:00;99047.50;;;30.76;66.93
44103;BME280;29769;42.178;24.742;2023-07-31T08:35:45;99050.91;;;29.68;72.63
44103;BME280;29769;42.178;24.742;2023-07-31T08:38:31;99053.47;;;29.95;72.23
44103;BME280;29769;42.178;24.742;2023-07-31T08:41:16;99052.94;;;29.92;70.81
44103;BME280;29769;42.178;24.742;2023-07-31T08:44:02;99058.38;;;29.92;70.83
44103;BME280;29769;42.178;24.742;2023-07-31T08:46:47;99049.09;;;30.44;67.28
44103;BME280;29769;42.178;24.742;2023-07-31T08:49:33;99063.31;;;30.88;65.24
44103;BME280;29769;42.178;24.742;2023-07-31T08:52:19;99057.94;;;31.05;63.25
44103;BME280;29769;42.178;24.742;2023-07-31T08:55:05;99054.22;;;31.38;62.46
44103;BME280;29769;42.178;24.742;2023-07-31T08:57:53;99054.56;;;31.59;60.98
44103;BME280;29769;42.178;24.742;2023-07-31T09:00:39;99058.84;;;32.09;59.67
44103;BME280;29769;42.178;24.742;2023-07-31T09:03:25;99057.25;;;32.39;57.21
44103;BME280;29769;42.178;24.742;2023-07-31T09:06:12;99042.41;;;32.41;56.95
44103;BME280;29769;42.178;24.742;2023-07-31T09:08:58;99052.69;;;32.70;55.73
44103;BME280;29769;42.178;24.742;2023-07-31T09:11:42;99046.88;;;32.96;54.48
44103;BME280;29769;42.178;24.742;2023-07-31T09:14:27;99053.31;;;33.63;52.52
44103;BME280;29769;42.178;24.742;2023-07-31T09:17:12;99055.72;;;33.81;50.27
44103;BME280;29769;42.178;24.742;2023-07-31T09:19:57;99051.41;;;34.01;50.18
44103;BME280;29769;42.178;24.742;2023-07-31T09:22:46;99054.06;;;35.32;46.79
44103;BME280;29769;42.178;24.742;2023-07-31T09:25:31;99041.31;;;35.39;46.05
44103;BME280;29769;42.178;24.742;2023-07-31T09:28:16;99048.03;;;36.67;42.74
44103;BME280;29769;42.178;24.742;2023-07-31T09:31:01;99042.50;;;37.34;40.41
44103;BME280;29769;42.178;24.742;2023-07-31T09:33:56;99032.16;;;37.30;40.60
44103;BME280;29769;42.178;24.742;2023-07-31T09:36:45;99035.78;;;35.11;42.99
44103;BME280;29769;42.178;24.742;2023-07-31T09:39:31;99027.94;;;34.51;45.07
44103;BME280;29769;42.178;24.742;2023-07-31T09:42:24;99032.31;;;34.01;44.44
44103;BME280;29769;42.178;24.742;2023-07-31T09:45:10;99020.00;;;34.70;42.58
44103;BME280;29769;42.178;24.742;2023-07-31T09:47:56;98998.94;;;35.28;41.67
44103;BME280;29769;42.178;24.742;2023-07-31T09:50:42;99028.09;;;35.42;41.89
44103;BME280;29769;42.178;24.742;2023-07-31T09:53:30;99028.16;;;35.28;42.51
44103;BME280;29769;42.178;24.742;2023-07-31T09:56:18;99028.28;;;33.60;45.42
44103;BME280;29769;42.178;24.742;2023-07-31T09:59:07;99034.47;;;33.39;46.18
44103;BME280;29769;42.178;24.742;2023-07-31T10:01:54;99022.28;;;33.64;45.13
44103;BME280;29769;42.178;24.742;2023-07-31T10:04:42;99022.94;;;35.33;42.42
44103;BME280;29769;42.178;24.742;2023-07-31T10:07:30;99018.44;;;37.30;37.90
44103;BME280;29769;42.178;24.742;2023-07-31T10:10:15;99001.16;;;37.36;36.54
44103;BME280;29769;42.178;24.742;2023-07-31T10:13:00;99001.84;;;38.28;33.46
44103;BME280;29769;42.178;24.742;2023-07-31T10:15:46;99007.50;;;37.56;35.46
44103;BME280;29769;42.178;24.742;2023-07-31T10:18:31;99008.97;;;37.59;35.11
44103;BME280;29769;42.178;24.742;2023-07-31T10:21:17;99003.69;;;37.70;34.47
44103;BME280;29769;42.178;24.742;2023-07-31T10:24:05;99011.06;;;37.50;34.89
44103;BME280;29769;42.178;24.742;2023-07-31T10:26:51;98985.19;;;38.68;33.15
44103;BME280;29769;42.178;24.742;2023-07-31T10:29:38;98990.75;;;39.24;31.69
44103;BME280;29769;42.178;24.742;2023-07-31T10:32:23;98984.22;;;40.89;29.75
44103;BME280;29769;42.178;24.742;2023-07-31T10:35:10;98974.19;;;39.55;30.52
44103;BME280;29769;42.178;24.742;2023-07-31T10:37:55;98970.66;;;38.61;31.40
44103;BME280;29769;42.178;24.742;2023-07-31T10:40:40;98985.47;;;36.77;33.17
44103;BME280;29769;42.178;24.742;2023-07-31T10:43:26;98967.56;;;37.01;32.83
44103;BME280;29769;42.178;24.742;2023-07-31T10:46:12;98960.50;;;38.61;30.96
44103;BME280;29769;42.178;24.742;2023-07-31T10:48:59;98957.72;;;39.49;30.45
44103;BME280;29769;42.178;24.742;2023-07-31T10:51:47;98963.25;;;40.88;28.59
44103;BME280;29769;42.178;24.742;2023-07-31T10:54:33;98953.06;;;39.92;30.04
44103;BME280;29769;42.178;24.742;2023-07-31T10:57:21;98957.56;;;39.87;32.08
44103;BME280;29769;42.178;24.742;2023-07-31T11:03:05;98967.44;;;38.64;34.22
44103;BME280;29769;42.178;24.742;2023-07-31T11:06:01;98969.16;;;38.20;35.05
44103;BME280;29769;42.178;24.742;2023-07-31T11:08:49;98971.16;;;36.95;37.26
44103;BME280;29769;42.178;24.742;2023-07-31T11:11:34;98976.75;;;35.44;41.08
44103;BME280;29769;42.178;24.742;2023-07-31T11:14:19;98982.47;;;34.43;45.11
44103;BME280;29769;42.178;24.742;2023-07-31T11:17:07;98980.47;;;33.86;46.99
44103;BME280;29769;42.178;24.742;2023-07-31T11:19:52;98982.19;;;33.50;46.95
44103;BME280;29769;42.178;24.742;2023-07-31T11:22:37;98969.31;;;33.06;47.32
44103;BME280;29769;42.178;24.742;2023-07-31T11:25:22;98975.44;;;32.63;48.19
44103;BME280;29769;42.178;24.742;2023-07-31T11:28:10;98969.00;;;32.56;49.24
44103;BME280;29769;42.178;24.742;2023-07-31T11:30:55;98969.00;;;34.42;45.11
44103;BME280;29769;42.178;24.742;2023-07-31T11:33:40;98960.59;;;36.18;40.80
44103;BME280;29769;42.178;24.742;2023-07-31T11:36:25;98960.94;;;37.94;36.93
44103;BME280;29769;42.178;24.742;2023-07-31T11:39:10;98964.94;;;39.68;33.51
44103;BME280;29769;42.178;24.742;2023-07-31T11:41:59;98959.03;;;40.85;30.58
44103;BME280;29769;42.178;24.742;2023-07-31T11:44:44;98960.97;;;41.38;28.88
44103;BME280;29769;42.178;24.742;2023-07-31T11:47:33;98957.38;;;42.47;28.36
44103;BME280;29769;42.178;24.742;2023-07-31T11:50:21;98952.34;;;43.51;27.13
44103;BME280;29769;42.178;24.742;2023-07-31T11:53:08;98962.28;;;44.07;25.32
44103;BME280;29769;42.178;24.742;2023-07-31T11:55:55;98951.72;;;44.48;25.04
44103;BME280;29769;42.178;24.742;2023-07-31T11:58:40;98947.66;;;44.82;24.80
44103;BME280;29769;42.178;24.742;2023-07-31T12:01:27;98945.75;;;45.46;24.16
44103;BME280;29769;42.178;24.742;2023-07-31T12:04:12;98942.69;;;45.85;23.18
44103;BME280;29769;42.178;24.742;2023-07-31T12:07:00;98939.47;;;46.13;22.77
44103;BME280;29769;42.178;24.742;2023-07-31T12:09:54;98939.63;;;45.86;22.81
44103;BME280;29769;42.178;24.742;2023-07-31T12:12:39;98928.53;;;44.59;23.90
44103;BME280;29769;42.178;24.742;2023-07-31T12:15:37;98931.31;;;44.32;24.51
44103;BME280;29769;42.178;24.742;2023-07-31T12:18:24;98933.91;;;45.24;23.61
44103;BME280;29769;42.178;24.742;2023-07-31T12:21:09;98929.66;;;45.90;22.97
44103;BME280;29769;42.178;24.742;2023-07-31T12:23:56;98925.84;;;45.23;23.40
44103;BME280;29769;42.178;24.742;2023-07-31T12:26:45;98921.91;;;42.04;26.60
44103;BME280;29769;42.178;24.742;2023-07-31T12:29:35;98916.25;;;42.79;26.11
44103;BME280;29769;42.178;24.742;2023-07-31T12:32:23;98916.91;;;43.03;25.10
44103;BME280;29769;42.178;24.742;2023-07-31T12:35:09;98909.84;;;42.34;25.31
44103;BME280;29769;42.178;24.742;2023-07-31T12:37:54;98904.84;;;42.47;24.97
44103;BME280;29769;42.178;24.742;2023-07-31T12:40:40;98890.63;;;41.87;24.62
44103;BME280;29769;42.178;24.742;2023-07-31T12:43:26;98899.84;;;41.81;25.42
44103;BME280;29769;42.178;24.742;2023-07-31T12:46:11;98900.50;;;42.11;24.92
44103;BME280;29769;42.178;24.742;2023-07-31T12:48:56;98900.88;;;41.52;25.27
44103;BME280;29769;42.178;24.742;2023-07-31T12:51:41;98896.31;;;40.81;27.34
44103;BME280;29769;42.178;24.742;2023-07-31T12:54:26;98894.16;;;39.75;29.15
44103;BME280;29769;42.178;24.742;2023-07-31T12:57:11;98898.31;;;39.17;29.27
44103;BME280;29769;42.178;24.742;2023-07-31T12:59:55;98890.78;;;38.81;29.96
44103;BME280;29769;42.178;24.742;2023-07-31T13:02:40;98857.63;;;38.13;29.94
44103;BME280;29769;42.178;24.742;2023-07-31T13:05:26;98896.44;;;38.86;30.27
44103;BME280;29769;42.178;24.742;2023-07-31T13:08:11;98881.66;;;40.09;28.66
44103;BME280;29769;42.178;24.742;2023-07-31T13:10:56;98881.81;;;40.74;27.65
44103;BME280;29769;42.178;24.742;2023-07-31T13:13:40;98879.16;;;40.37;27.74
44103;BME280;29769;42.178;24.742;2023-07-31T13:16:25;98867.75;;;39.68;29.27
44103;BME280;29769;42.178;24.742;2023-07-31T13:19:11;98875.84;;;40.17;28.62
44103;BME280;29769;42.178;24.742;2023-07-31T13:21:56;98874.38;;;40.15;28.21
44103;BME280;29769;42.178;24.742;2023-07-31T13:24:41;98874.34;;;39.24;29.49
44103;BME280;29769;42.178;24.742;2023-07-31T13:27:26;98877.66;;;39.07;33.26
44103;BME280;29769;42.178;24.742;2023-07-31T13:30:10;98872.44;;;38.05;34.96
44103;BME280;29769;42.178;24.742;2023-07-31T13:32:56;98875.13;;;38.81;33.56
44103;BME280;29769;42.178;24.742;2023-07-31T13:35:40;98870.59;;;38.93;32.60
44103;BME280;29769;42.178;24.742;2023-07-31T13:38:25;98874.38;;;38.36;33.38
44103;BME280;29769;42.178;24.742;2023-07-31T13:41:10;98872.56;;;37.72;34.63
44103;BME280;29769;42.178;24.742;2023-07-31T13:43:55;98860.88;;;36.86;37.55
44103;BME280;29769;42.178;24.742;2023-07-31T13:46:40;98876.44;;;34.68;40.83
44103;BME280;29769;42.178;24.742;2023-07-31T13:49:25;98872.16;;;34.37;41.69
44103;BME280;29769;42.178;24.742;2023-07-31T13:52:09;98872.38;;;33.56;42.45
44103;BME280;29769;42.178;24.742;2023-07-31T13:54:54;98874.16;;;33.64;43.81
44103;BME280;29769;42.178;24.742;2023-07-31T13:57:40;98865.69;;;33.88;44.12
44103;BME280;29769;42.178;24.742;2023-07-31T14:00:25;98862.78;;;34.47;41.83
44103;BME280;29769;42.178;24.742;2023-07-31T14:03:10;98863.81;;;34.46;41.05
44103;BME280;29769;42.178;24.742;2023-07-31T14:05:55;98858.59;;;33.93;43.32
44103;BME280;29769;42.178;24.742;2023-07-31T14:08:40;98861.47;;;34.21;41.65
44103;BME280;29769;42.178;24.742;2023-07-31T14:11:26;98855.34;;;33.54;44.77
44103;BME280;29769;42.178;24.742;2023-07-31T14:14:10;98868.88;;;34.27;43.13
44103;BME280;29769;42.178;24.742;2023-07-31T14:16:55;98862.13;;;34.45;41.34
44103;BME280;29769;42.178;24.742;2023-07-31T14:19:40;98870.94;;;34.89;39.42
44103;BME280;29769;42.178;24.742;2023-07-31T14:22:29;98866.66;;;34.59;39.97
44103;BME280;29769;42.178;24.742;2023-07-31T14:25:14;98864.19;;;34.85;38.73
44103;BME280;29769;42.178;24.742;2023-07-31T14:27:59;98865.13;;;35.20;38.40
44103;BME280;29769;42.178;24.742;2023-07-31T14:30:44;98863.59;;;35.86;36.53
44103;BME280;29769;42.178;24.742;2023-07-31T14:33:29;98848.59;;;35.76;36.14